createdAt,value
2017-10-17T00:01:14.590Z,101357.29
2017-10-17T00:03:41.992Z,101358.16
2017-10-17T00:06:09.390Z,101357.91
2017-10-17T00:08:36.791Z,101361.48
2017-10-17T00:11:04.201Z,101368.67
2017-10-17T00:13:31.616Z,101367.28
2017-10-17T00:15:59.010Z,101362.37
2017-10-17T00:18:26.410Z,101358.67
2017-10-17T00:20:53.868Z,101366.56
2017-10-17T00:23:21.254Z,101358.63
2017-10-17T00:25:48.663Z,101365.34
2017-10-17T00:28:16.147Z,101367.03
2017-10-17T00:30:43.538Z,101358.42
2017-10-17T00:33:14.605Z,101368.63
2017-10-17T00:35:46.412Z,101366.68
2017-10-17T00:38:13.855Z,101364.22
2017-10-17T00:40:41.303Z,101368.59
2017-10-17T00:43:09.615Z,101364.06
2017-10-17T00:45:37.038Z,101371.86
2017-10-17T00:48:04.446Z,101374.41
2017-10-17T00:50:31.831Z,101366.88
2017-10-17T00:52:59.236Z,101366.75
2017-10-17T00:55:26.635Z,101357.16
2017-10-17T00:57:54.127Z,101358.17
2017-10-17T01:00:21.533Z,101355.02
2017-10-17T01:02:48.922Z,101361.22
2017-10-17T01:05:16.326Z,101355.44
2017-10-17T01:07:43.738Z,101358.08
2017-10-17T01:10:11.204Z,101357.63
2017-10-17T01:12:38.595Z,101357.76
2017-10-17T01:15:06.011Z,101361.30
2017-10-17T01:17:33.423Z,101352.80
2017-10-17T01:20:03.583Z,101356.38
2017-10-17T01:22:30.982Z,101351.50
2017-10-17T01:24:58.387Z,101357.02
2017-10-17T01:27:25.779Z,101350.05
2017-10-17T01:29:53.183Z,101345.81
2017-10-17T01:32:20.663Z,101349.88
2017-10-17T01:34:51.438Z,101345.66
2017-10-17T01:37:18.835Z,101338.09
2017-10-17T01:39:47.643Z,101335.10
2017-10-17T01:42:22.466Z,101342.95
2017-10-17T01:44:49.865Z,101333.61
2017-10-17T01:47:21.819Z,101343.25
2017-10-17T01:49:50.974Z,101337.86
2017-10-17T01:52:23.331Z,101341.38
2017-10-17T01:54:53.071Z,101333.38
2017-10-17T01:57:20.464Z,101337.08
2017-10-17T01:59:52.510Z,101333.24
2017-10-17T02:02:19.919Z,101333.50
2017-10-17T02:04:47.318Z,101335.55
2017-10-17T02:07:14.757Z,101332.06
2017-10-17T02:09:42.926Z,101334.77
2017-10-17T02:12:10.338Z,101330.70
2017-10-17T02:14:37.744Z,101323.42
2017-10-17T02:17:05.135Z,101329.55
2017-10-17T02:19:32.535Z,101322.16
2017-10-17T02:22:02.690Z,101327.47
2017-10-17T02:24:30.126Z,101327.72
2017-10-17T02:26:57.521Z,101331.20
2017-10-17T02:29:28.346Z,101334.05
2017-10-17T02:31:55.758Z,101328.95
2017-10-17T02:34:46.883Z,101323.25
2017-10-17T02:37:14.287Z,101326.45
2017-10-17T02:39:41.678Z,101326.89
2017-10-17T02:42:09.087Z,101326.45
2017-10-17T02:44:36.475Z,101326.45
2017-10-17T02:47:18.763Z,101319.95
2017-10-17T02:49:47.070Z,101323.31
2017-10-17T02:52:32.159Z,101318.06
2017-10-17T02:54:59.555Z,101324.20
2017-10-17T02:57:26.970Z,101318.87
2017-10-17T02:59:56.983Z,101323.18
2017-10-17T03:02:26.389Z,101319.89
2017-10-17T03:04:53.787Z,101316.86
2017-10-17T03:07:21.187Z,101315.10
2017-10-17T03:09:48.587Z,101316.69
2017-10-17T03:12:15.990Z,101315.71
2017-10-17T03:14:54.163Z,101314.02
2017-10-17T03:17:21.558Z,101318.13
2017-10-17T03:19:48.950Z,101316.52
2017-10-17T03:22:16.383Z,101322.52
2017-10-17T03:24:55.414Z,101323.16
2017-10-17T03:27:22.828Z,101322.14
2017-10-17T03:29:50.215Z,101329.30
2017-10-17T03:32:17.707Z,101326.63
2017-10-17T03:34:48.031Z,101326.39
2017-10-17T03:37:24.002Z,101319.47
2017-10-17T03:42:56.966Z,101334.15
2017-10-17T03:45:24.431Z,101331.06
2017-10-17T03:47:54.534Z,101332.71
2017-10-17T03:50:24.458Z,101340.89
2017-10-17T03:52:51.869Z,101336.47
2017-10-17T03:55:19.267Z,101335.48
2017-10-17T03:57:48.436Z,101339.48
2017-10-17T04:00:16.401Z,101345.66
2017-10-17T04:02:45.092Z,101335.69
2017-10-17T04:05:15.856Z,101337.09
2017-10-17T04:07:47.185Z,101341.41
2017-10-17T04:10:21.038Z,101338.39
2017-10-17T04:12:49.903Z,101340.08
2017-10-17T04:15:17.290Z,101344.17
2017-10-17T04:17:50.227Z,101349.23
2017-10-17T04:20:33.167Z,101349.17
2017-10-17T04:23:22.129Z,101352.16
2017-10-17T04:25:51.986Z,101350.56
2017-10-17T04:31:23.874Z,101352.95
2017-10-17T04:37:11.758Z,101348.49
2017-10-17T04:39:39.154Z,101349.52
2017-10-17T04:42:18.358Z,101360.28
2017-10-17T04:45:00.606Z,101358.77
2017-10-17T04:47:32.531Z,101350.81
2017-10-17T04:50:00.828Z,101359.34
2017-10-17T04:52:29.879Z,101361.42
2017-10-17T04:54:57.958Z,101362.58
2017-10-17T04:57:35.251Z,101366.17
2017-10-17T05:00:03.223Z,101372.42
2017-10-17T05:02:44.242Z,101373.20
2017-10-17T05:05:21.377Z,101365.75
2017-10-17T05:07:50.580Z,101374.81
2017-10-17T05:14:09.268Z,101370.81
2017-10-17T05:16:42.629Z,101369.91
2017-10-17T05:19:11.764Z,101375.23
2017-10-17T05:21:39.164Z,101380.75
2017-10-17T05:24:09.395Z,101390.63
2017-10-17T05:26:36.821Z,101382.22
2017-10-17T05:29:05.803Z,101390.86
2017-10-17T05:31:37.563Z,101391.16
2017-10-17T05:34:06.457Z,101389.08
2017-10-17T05:39:33.163Z,101387.33
2017-10-17T05:42:00.571Z,101398.36
2017-10-17T05:44:29.590Z,101396.19
2017-10-17T05:46:58.369Z,101397.80
2017-10-17T05:49:44.242Z,101398.26
2017-10-17T05:52:11.647Z,101395.78
2017-10-17T05:54:39.119Z,101394.11
2017-10-17T05:57:06.522Z,101399.05
2017-10-17T05:59:33.918Z,101395.70
2017-10-17T06:02:01.340Z,101397.85
2017-10-17T06:04:28.730Z,101394.20
2017-10-17T06:06:56.127Z,101400.11
2017-10-17T06:09:23.883Z,101407.46
2017-10-17T06:11:51.282Z,101415.20
2017-10-17T06:14:18.687Z,101412.70
2017-10-17T06:16:46.095Z,101417.15
2017-10-17T06:19:13.498Z,101419.73
2017-10-17T06:21:40.914Z,101421.06
2017-10-17T06:24:08.315Z,101425.05
2017-10-17T06:26:35.706Z,101419.20
2017-10-17T06:29:03.115Z,101426.47
2017-10-17T06:31:30.518Z,101425.53
2017-10-17T06:33:57.914Z,101428.53
2017-10-17T06:36:25.311Z,101434.38
2017-10-17T06:38:52.719Z,101432.64
2017-10-17T06:41:20.106Z,101434.53
2017-10-17T06:43:47.508Z,101439.00
2017-10-17T06:46:14.899Z,101437.13
2017-10-17T06:48:42.303Z,101434.72
2017-10-17T06:51:09.702Z,101435.74
2017-10-17T06:53:37.107Z,101432.14
2017-10-17T06:56:04.499Z,101440.67
2017-10-17T06:58:31.897Z,101438.52
2017-10-17T07:00:59.306Z,101431.91
2017-10-17T07:03:26.724Z,101433.64
2017-10-17T07:05:54.116Z,101438.73
2017-10-17T07:08:21.663Z,101441.72
2017-10-17T07:10:49.094Z,101445.45
2017-10-17T07:13:16.475Z,101433.07
2017-10-17T07:15:43.870Z,101438.58
2017-10-17T07:18:11.266Z,101442.34
2017-10-17T07:20:38.672Z,101448.42
2017-10-17T07:23:06.066Z,101443.87
2017-10-17T07:25:33.467Z,101446.91
2017-10-17T07:28:01.226Z,101448.98
2017-10-17T07:30:28.631Z,101449.36
2017-10-17T07:32:56.027Z,101453.13
2017-10-17T07:35:23.431Z,101448.61
2017-10-17T07:37:50.818Z,101448.10
2017-10-17T07:40:18.227Z,101454.23
2017-10-17T07:42:45.617Z,101457.78
2017-10-17T07:45:13.022Z,101463.17
2017-10-17T07:47:40.415Z,101460.49
2017-10-17T07:50:07.836Z,101458.84
2017-10-17T07:52:35.233Z,101448.25
2017-10-17T07:55:02.675Z,101454.34
2017-10-17T07:57:30.063Z,101451.66
2017-10-17T07:59:57.493Z,101454.88
2017-10-17T08:02:24.876Z,101453.05
2017-10-17T08:04:52.270Z,101453.77
2017-10-17T08:07:19.667Z,101457.81
2017-10-17T08:09:47.058Z,101455.64
2017-10-17T08:12:14.461Z,101453.73
2017-10-17T08:14:42.006Z,101450.55
2017-10-17T08:17:09.398Z,101448.98
2017-10-17T08:19:36.795Z,101447.72
2017-10-17T08:22:04.374Z,101452.53
2017-10-17T08:24:31.771Z,101453.42
2017-10-17T08:26:59.187Z,101450.63
2017-10-17T08:29:26.579Z,101453.61
2017-10-17T08:31:54.031Z,101453.80
2017-10-17T08:34:21.443Z,101448.04
2017-10-17T08:36:48.846Z,101452.69
2017-10-17T08:39:16.339Z,101451.38
2017-10-17T08:41:43.958Z,101451.99
2017-10-17T08:44:11.367Z,101448.88
2017-10-17T08:46:38.767Z,101449.86
2017-10-17T08:49:06.166Z,101456.38
2017-10-17T08:51:33.843Z,101451.47
2017-10-17T08:54:01.242Z,101454.89
2017-10-17T08:56:28.635Z,101462.17
2017-10-17T08:58:56.127Z,101460.78
2017-10-17T09:01:23.519Z,101456.64
2017-10-17T09:03:50.919Z,101461.94
2017-10-17T09:06:18.315Z,101465.80
2017-10-17T09:08:45.831Z,101462.73
2017-10-17T09:11:13.290Z,101463.78
2017-10-17T09:13:40.704Z,101465.77
2017-10-17T09:16:08.090Z,101468.13
2017-10-17T09:18:35.500Z,101468.53
2017-10-17T09:21:02.916Z,101466.56
2017-10-17T09:23:30.319Z,101463.23
2017-10-17T09:25:57.715Z,101458.78
2017-10-17T09:28:25.200Z,101461.06
2017-10-17T09:30:52.578Z,101458.86
2017-10-17T09:33:19.984Z,101458.20
2017-10-17T09:35:47.384Z,101462.40
2017-10-17T09:38:14.779Z,101453.30
2017-10-17T09:40:42.178Z,101464.36
2017-10-17T09:43:09.573Z,101462.20
2017-10-17T09:45:36.979Z,101463.42
2017-10-17T09:48:04.374Z,101450.63
2017-10-17T09:50:31.786Z,101452.17
2017-10-17T09:52:59.257Z,101454.65
2017-10-17T09:55:26.658Z,101454.63
2017-10-17T09:57:54.050Z,101452.86
2017-10-17T10:00:21.515Z,101450.23
2017-10-17T10:02:48.911Z,101454.30
2017-10-17T10:05:16.307Z,101455.23
2017-10-17T10:07:43.694Z,101457.43
2017-10-17T10:10:11.091Z,101455.33
2017-10-17T10:12:38.478Z,101458.98
2017-10-17T10:15:05.886Z,101459.17
2017-10-17T10:17:33.283Z,101457.23
2017-10-17T10:20:00.748Z,101459.05
2017-10-17T10:22:28.135Z,101457.86
2017-10-17T10:24:55.585Z,101460.09
2017-10-17T10:27:23.031Z,101461.93
2017-10-17T10:29:50.427Z,101463.08
2017-10-17T10:32:17.823Z,101456.64
2017-10-17T10:34:45.224Z,101462.55
2017-10-17T10:37:12.614Z,101457.55
2017-10-17T10:39:40.142Z,101457.77
2017-10-17T10:42:07.542Z,101454.16
2017-10-17T10:44:34.933Z,101444.41
2017-10-17T10:47:02.331Z,101447.77
2017-10-17T10:49:29.737Z,101452.66
2017-10-17T10:51:57.119Z,101453.03
2017-10-17T10:54:24.511Z,101455.02
2017-10-17T10:56:51.912Z,101453.92
2017-10-17T10:59:19.303Z,101439.99
2017-10-17T11:01:46.706Z,101440.91
2017-10-17T11:04:14.095Z,101442.55
2017-10-17T11:06:41.494Z,101435.41
2017-10-17T11:09:08.885Z,101435.55
2017-10-17T11:11:36.283Z,101430.22
2017-10-17T11:14:03.686Z,101425.98
2017-10-17T11:16:31.078Z,101421.56
2017-10-17T11:18:58.472Z,101411.63
2017-10-17T11:21:25.959Z,101412.69
2017-10-17T11:23:53.342Z,101415.23
2017-10-17T11:26:20.747Z,101414.61
2017-10-17T11:28:48.152Z,101406.68
2017-10-17T11:31:15.544Z,101406.13
2017-10-17T11:33:42.931Z,101401.76
2017-10-17T11:36:10.331Z,101400.72
2017-10-17T11:38:37.723Z,101400.75
2017-10-17T11:41:16.863Z,101392.70
2017-10-17T11:43:50.111Z,101393.42
2017-10-17T11:46:17.550Z,101386.20
2017-10-17T11:48:44.936Z,101377.39
2017-10-17T11:51:12.427Z,101380.20
2017-10-17T11:53:39.830Z,101377.99
2017-10-17T11:56:07.219Z,101374.83
2017-10-17T11:58:34.608Z,101365.01
2017-10-17T12:01:02.012Z,101368.83
2017-10-17T12:03:29.387Z,101364.81
2017-10-17T12:05:56.880Z,101362.61
2017-10-17T12:08:24.270Z,101358.23
2017-10-17T12:10:51.674Z,101353.70
2017-10-17T12:13:19.075Z,101351.87
2017-10-17T12:15:46.475Z,101345.47
2017-10-17T12:18:13.880Z,101343.98
2017-10-17T12:20:41.291Z,101352.44
2017-10-17T12:23:08.698Z,101341.22
2017-10-17T12:25:36.089Z,101340.03
2017-10-17T12:28:03.486Z,101340.71
2017-10-17T12:30:30.934Z,101346.41
2017-10-17T12:32:58.321Z,101334.87
2017-10-17T12:35:25.712Z,101337.32
2017-10-17T12:37:53.107Z,101335.97
2017-10-17T12:40:20.499Z,101338.87
2017-10-17T12:42:47.892Z,101333.08
2017-10-17T12:45:15.297Z,101339.85
2017-10-17T12:47:42.720Z,101335.67
2017-10-17T12:50:10.106Z,101338.77
2017-10-17T12:52:37.512Z,101328.84
2017-10-17T12:55:04.910Z,101331.04
2017-10-17T12:57:32.310Z,101334.77
2017-10-17T12:59:59.690Z,101336.20
2017-10-17T13:02:27.158Z,101329.05
2017-10-17T13:04:54.541Z,101318.77
2017-10-17T13:07:21.944Z,101319.27
2017-10-17T13:09:49.435Z,101312.73
2017-10-17T13:12:16.883Z,101307.66
2017-10-17T13:14:44.279Z,101308.23
2017-10-17T13:17:11.663Z,101301.67
2017-10-17T13:19:39.066Z,101295.44
2017-10-17T13:22:06.451Z,101290.80
2017-10-17T13:24:33.915Z,101285.35
2017-10-17T13:27:01.306Z,101288.75
2017-10-17T13:29:28.699Z,101290.80
2017-10-17T13:31:56.134Z,101297.97
2017-10-17T13:34:23.535Z,101288.45
2017-10-17T13:36:50.927Z,101286.48
2017-10-17T13:39:18.331Z,101288.03
2017-10-17T13:41:45.711Z,101283.88
2017-10-17T13:44:13.119Z,101283.52
2017-10-17T13:46:40.502Z,101287.48
2017-10-17T13:49:07.925Z,101282.33
2017-10-17T13:51:35.314Z,101284.80
2017-10-17T13:54:02.738Z,101281.91
2017-10-17T13:56:30.126Z,101283.53
2017-10-17T13:58:57.519Z,101274.75
2017-10-17T14:01:24.920Z,101273.66
2017-10-17T14:03:52.307Z,101270.46
2017-10-17T14:06:19.698Z,101271.09
2017-10-17T14:08:47.128Z,101271.16
2017-10-17T14:11:14.519Z,101267.55
2017-10-17T14:13:41.919Z,101266.59
2017-10-17T14:16:09.311Z,101265.45
2017-10-17T14:18:36.708Z,101257.88
2017-10-17T14:21:04.107Z,101262.33
2017-10-17T14:23:31.721Z,101262.78
2017-10-17T14:25:59.250Z,101261.92
2017-10-17T14:28:26.651Z,101257.89
2017-10-17T14:30:54.048Z,101263.91
2017-10-17T14:33:21.434Z,101259.52
2017-10-17T14:35:48.836Z,101266.86
2017-10-17T14:38:16.229Z,101261.85
2017-10-17T14:40:43.623Z,101258.25
2017-10-17T14:43:11.006Z,101256.10
2017-10-17T14:45:38.419Z,101254.04
2017-10-17T14:48:05.798Z,101244.52
2017-10-17T14:50:33.215Z,101242.53
2017-10-17T14:53:00.602Z,101247.19
2017-10-17T14:55:27.987Z,101244.58
2017-10-17T14:57:55.393Z,101243.69
2017-10-17T15:00:22.771Z,101253.72
2017-10-17T15:02:50.175Z,101247.02
2017-10-17T15:05:17.558Z,101246.77
2017-10-17T15:07:44.954Z,101251.43
2017-10-17T15:10:12.337Z,101253.02
2017-10-17T15:12:39.736Z,101247.34
2017-10-17T15:15:07.120Z,101252.61
2017-10-17T15:17:34.543Z,101248.52
2017-10-17T15:20:01.932Z,101246.89
2017-10-17T15:22:29.323Z,101247.53
2017-10-17T15:24:56.714Z,101240.24
2017-10-17T15:27:24.111Z,101239.95
2017-10-17T15:29:51.510Z,101235.41
2017-10-17T15:32:18.899Z,101238.42
2017-10-17T15:34:46.295Z,101236.92
2017-10-17T15:37:13.782Z,101233.02
2017-10-17T15:39:41.179Z,101244.13
2017-10-17T15:42:08.587Z,101240.09
2017-10-17T15:44:35.974Z,101236.88
2017-10-17T15:47:03.375Z,101235.58
2017-10-17T15:49:30.790Z,101236.03
2017-10-17T15:51:58.190Z,101235.58
2017-10-17T15:54:26.229Z,101236.56
2017-10-17T15:56:53.613Z,101232.02
2017-10-17T15:59:20.999Z,101221.70
2017-10-17T16:01:48.390Z,101216.02
2017-10-17T16:04:15.782Z,101219.79
2017-10-17T16:06:43.173Z,101216.42
2017-10-17T16:09:10.562Z,101213.17
2017-10-17T16:11:37.955Z,101216.02
2017-10-17T16:14:05.358Z,101215.34
2017-10-17T16:16:32.786Z,101213.63
2017-10-17T16:19:00.183Z,101212.00
2017-10-17T16:21:27.608Z,101212.66
2017-10-17T16:23:55.012Z,101211.14
2017-10-17T16:26:22.395Z,101212.59
2017-10-17T16:28:49.903Z,101218.68
2017-10-17T16:31:17.301Z,101214.94
2017-10-17T16:33:44.688Z,101213.29
2017-10-17T16:36:12.147Z,101217.03
2017-10-17T16:38:39.549Z,101216.58
2017-10-17T16:41:06.947Z,101219.34
2017-10-17T16:43:34.339Z,101216.34
2017-10-17T16:46:01.791Z,101218.67
2017-10-17T16:48:29.185Z,101223.63
2017-10-17T16:50:56.578Z,101224.55
2017-10-17T16:53:24.034Z,101224.15
2017-10-17T16:55:51.430Z,101218.50
2017-10-17T16:58:18.815Z,101215.41
2017-10-17T17:00:46.215Z,101216.25
2017-10-17T17:03:13.603Z,101213.60
2017-10-17T17:05:41.063Z,101215.34
2017-10-17T17:08:08.447Z,101213.05
2017-10-17T17:10:35.859Z,101220.03
2017-10-17T17:13:03.258Z,101215.79
2017-10-17T17:15:30.668Z,101224.70
2017-10-17T17:17:58.072Z,101220.07
2017-10-17T17:20:25.467Z,101215.64
2017-10-17T17:22:52.855Z,101220.15
2017-10-17T17:25:20.246Z,101221.49
2017-10-17T17:27:47.647Z,101220.78
2017-10-17T17:30:15.038Z,101216.50
2017-10-17T17:32:42.452Z,101215.14
2017-10-17T17:35:09.846Z,101219.14
2017-10-17T17:37:37.244Z,101223.39
2017-10-17T17:40:04.639Z,101220.30
2017-10-17T17:42:32.030Z,101209.87
2017-10-17T17:44:59.439Z,101208.94
2017-10-17T17:47:26.823Z,101206.16
2017-10-17T17:49:54.243Z,101208.52
2017-10-17T17:52:21.626Z,101202.13
2017-10-17T17:54:49.023Z,101201.94
2017-10-17T17:57:16.422Z,101204.48
2017-10-17T17:59:43.807Z,101210.77
2017-10-17T18:02:11.216Z,101205.07
2017-10-17T18:04:38.611Z,101198.73
2017-10-17T18:07:05.994Z,101192.22
2017-10-17T18:09:33.398Z,101195.70
2017-10-17T18:12:00.802Z,101195.22
2017-10-17T18:14:28.198Z,101195.72
2017-10-17T18:16:55.594Z,101189.87
2017-10-17T18:19:22.994Z,101193.78
2017-10-17T18:21:50.387Z,101190.39
2017-10-17T18:24:17.783Z,101184.44
2017-10-17T18:26:45.187Z,101181.06
2017-10-17T18:29:12.595Z,101177.59
2017-10-17T18:31:40.007Z,101178.66
2017-10-17T18:34:07.398Z,101173.04
2017-10-17T18:36:34.799Z,101169.77
2017-10-17T18:39:02.195Z,101169.36
2017-10-17T18:41:29.587Z,101164.23
2017-10-17T18:43:56.990Z,101168.06
2017-10-17T18:46:24.379Z,101164.94
2017-10-17T18:48:51.782Z,101158.76
2017-10-17T18:51:19.186Z,101154.97
2017-10-17T18:53:46.582Z,101156.91
2017-10-17T18:56:13.974Z,101149.64
2017-10-17T18:58:41.391Z,101156.83
2017-10-17T19:01:08.785Z,101154.06
2017-10-17T19:03:36.218Z,101154.38
2017-10-17T19:06:03.606Z,101151.36
2017-10-17T19:08:31.014Z,101150.73
2017-10-17T19:10:58.411Z,101150.13
2017-10-17T19:13:25.816Z,101160.72
2017-10-17T19:15:53.208Z,101151.36
2017-10-17T19:18:20.602Z,101154.38
2017-10-17T19:20:48.018Z,101144.06
2017-10-17T19:23:15.538Z,101136.91
2017-10-17T19:25:42.938Z,101140.88
2017-10-17T19:28:10.326Z,101136.38
2017-10-17T19:30:37.741Z,101141.78
2017-10-17T19:33:05.152Z,101148.09
2017-10-17T19:35:32.551Z,101149.19
2017-10-17T19:37:59.966Z,101151.47
2017-10-17T19:40:27.356Z,101145.36
2017-10-17T19:42:54.751Z,101149.84
2017-10-17T19:45:22.153Z,101148.03
2017-10-17T19:47:49.551Z,101142.52
2017-10-17T19:50:16.951Z,101149.50
2017-10-17T19:52:44.339Z,101152.94
2017-10-17T19:55:11.739Z,101148.69
2017-10-17T19:57:39.143Z,101154.55
2017-10-17T20:00:06.548Z,101163.74
2017-10-17T20:02:33.947Z,101164.74
2017-10-17T20:05:01.347Z,101168.56
2017-10-17T20:07:28.738Z,101166.63
2017-10-17T20:09:56.154Z,101166.34
2017-10-17T20:12:23.531Z,101163.66
2017-10-17T20:14:50.925Z,101165.59
2017-10-17T20:17:18.327Z,101167.21
2017-10-17T20:19:45.812Z,101172.86
2017-10-17T20:22:13.203Z,101175.28
2017-10-17T20:24:40.627Z,101178.52
2017-10-17T20:27:08.018Z,101166.55
2017-10-17T20:29:35.410Z,101180.02
2017-10-17T20:32:02.824Z,101170.83
2017-10-17T20:34:30.226Z,101171.80
2017-10-17T20:36:57.622Z,101176.48
2017-10-17T20:39:25.047Z,101166.18
2017-10-17T20:41:52.446Z,101169.33
2017-10-17T20:44:19.834Z,101169.48
2017-10-17T20:46:47.284Z,101170.91
2017-10-17T20:49:14.681Z,101167.83
2017-10-17T20:51:42.095Z,101180.05
2017-10-17T20:54:09.476Z,101171.25
2017-10-17T20:56:36.875Z,101185.84
2017-10-17T20:59:04.278Z,101179.44
2017-10-17T21:01:31.687Z,101175.78
2017-10-17T21:03:59.108Z,101176.63
2017-10-17T21:06:26.518Z,101174.29
2017-10-17T21:08:53.916Z,101182.69
2017-10-17T21:11:21.314Z,101177.16
2017-10-17T21:13:48.734Z,101181.44
2017-10-17T21:16:16.129Z,101177.62
2017-10-17T21:18:44.498Z,101173.66
2017-10-17T21:21:11.915Z,101176.89
2017-10-17T21:23:39.321Z,101176.13
2017-10-17T21:26:06.706Z,101179.61
2017-10-17T21:28:34.112Z,101179.70
2017-10-17T21:31:01.510Z,101180.55
2017-10-17T21:33:28.912Z,101180.49
2017-10-17T21:35:56.307Z,101185.13
2017-10-17T21:38:23.719Z,101180.62
2017-10-17T21:40:51.102Z,101183.09
2017-10-17T21:43:18.519Z,101183.34
2017-10-17T21:45:45.950Z,101180.38
2017-10-17T21:48:13.354Z,101173.88
2017-10-17T21:50:40.757Z,101172.45
2017-10-17T21:53:08.230Z,101174.24
2017-10-17T21:55:35.622Z,101170.05
2017-10-17T21:58:03.019Z,101172.58
2017-10-17T22:00:42.183Z,101162.75
2017-10-17T22:03:09.579Z,101164.16
2017-10-17T22:05:36.970Z,101162.22
2017-10-17T22:08:04.370Z,101157.87
2017-10-17T22:10:31.758Z,101154.63
2017-10-17T22:12:59.154Z,101153.30
2017-10-17T22:15:26.542Z,101153.56
2017-10-17T22:17:53.947Z,101148.31
2017-10-17T22:20:21.338Z,101144.71
2017-10-17T22:22:48.735Z,101145.75
2017-10-17T22:25:16.132Z,101148.83
2017-10-17T22:27:43.526Z,101143.84
2017-10-17T22:30:10.945Z,101144.77
2017-10-17T22:32:38.339Z,101142.14
2017-10-17T22:35:05.734Z,101142.95
2017-10-17T22:37:33.140Z,101133.91
2017-10-17T22:40:05.042Z,101138.50
2017-10-17T22:42:32.444Z,101138.44
2017-10-17T22:44:59.895Z,101123.77
2017-10-17T22:47:27.383Z,101118.65
2017-10-17T22:49:54.754Z,101124.19
2017-10-17T22:52:22.159Z,101128.72
2017-10-17T22:54:49.578Z,101127.55
2017-10-17T22:57:16.974Z,101122.70
2017-10-17T22:59:44.369Z,101118.69
2017-10-17T23:02:11.787Z,101110.61
2017-10-17T23:04:39.178Z,101117.92
2017-10-17T23:07:06.593Z,101114.11
2017-10-17T23:09:34.096Z,101120.11
2017-10-17T23:12:01.559Z,101121.23
2017-10-17T23:14:28.978Z,101114.53
2017-10-17T23:17:08.190Z,101113.59
2017-10-17T23:19:47.347Z,101110.86
2017-10-17T23:22:14.767Z,101111.13
2017-10-17T23:24:42.178Z,101119.00
2017-10-17T23:27:09.833Z,101109.02
2017-10-17T23:29:37.239Z,101101.75
2017-10-17T23:32:04.646Z,101091.77
2017-10-17T23:34:32.043Z,101097.86
2017-10-17T23:36:59.438Z,101095.63
2017-10-17T23:39:26.839Z,101101.84
2017-10-17T23:41:54.230Z,101099.73
2017-10-17T23:44:21.629Z,101092.52
2017-10-17T23:46:49.027Z,101098.36
2017-10-17T23:49:16.428Z,101095.14
2017-10-17T23:51:43.824Z,101098.52
2017-10-17T23:54:11.227Z,101087.02
2017-10-17T23:56:38.623Z,101084.67
2017-10-17T23:59:06.019Z,101087.94
